AirNav   Everest Fuels
 
 1151 users online  

KHQZ Mesquite Metro Airport
Mesquite, Texas, USA

GOING TO MESQUITE?


FAA INFORMATION EFFECTIVE 10 OCTOBER 2019

Location

FAA Identifier: HQZ
Lat/Long: 32-44-49.0660N 096-31-49.5020W
32-44.817767N 096-31.825033W
32.7469628,-96.5304172
(estimated)
Elevation: 446.5 ft. / 136.1 m (surveyed)
Variation: 03E (2015)
From city: 3 miles E of MESQUITE, TX
Time zone: UTC -5 (UTC -6 during Standard Time)
Zip code: 75181

Airport Operations

Airport use: Open to the public
Activation date: 08/1976
Control tower: yes
ARTCC: FORT WORTH CENTER
FSS: FORT WORTH FLIGHT SERVICE STATION
NOTAMs facility: HQZ (NOTAM-D service available)
Attendance: 0800-2000
FOR ATTENDANT AFT HRS CALL 214-244-1959
Wind indicator: lighted
Segmented circle: yes
Lights: ACTVT RLLS RWY 18 & 36; REIL RWY 18 & 36; PAPI RWY 18 & 36; MIRL RWY 18/36 - PRESET LOW INTST,TO INCR INTST - CTAF.
Beacon: white-green (lighted land airport)
Operates sunset to sunrise.

Airport Communications

CTAF: 120.3
UNICOM: 123.05
WX AWOS-3: 118.175 (972-222-7631)
MESQUITE GROUND: 118.85 [0700-2100]
MESQUITE TOWER: 120.3 [0700-2100]
REGIONAL APPROACH: 125.2
REGIONAL DEPARTURE: 125.2
EESAT STAR: 125.025 125.275
FINGR STAR: 124.3 125.275
GREGS STAR: 118.1
JFRYE STAR: 118.1
JOE POOL DP: 125.2
KNEAD STAR: 135.975
LOADS STAR: 125.025 125.275
SLANT STAR: 125.025 125.275
SWVAY STAR: 135.975
YEAGR STAR: 125.025 125.2 125.275
WX AWOS-3 at F46 (12 nm NE): 121.25 (972-772-6699)
WX ASOS at TRL (13 nm E): 119.275 (972-551-1334)
WX AWOS-3 at 49T (14 nm W): 135.425 (214-670-1243)
WX AWOS-3 at LNC (14 nm SW): 118.975 (972-227-0471)
WX ASOS at DAL (17 nm W): PHONE 214-353-1551
WX ASOS at RBD (18 nm W): PHONE 214-330-5317

Nearby radio navigation aids

VOR radial/distance  VOR name  Freq  Var
CVEr109/20.7COWBOY VOR/DME116.2006E
TTTr100/26.7MAVERICK VOR/DME113.1006E
FUZr099/33.8RANGER VORTAC115.7006E
CQYr329/37.2CEDAR CREEK VORTAC114.8006E

 
NDB name  Hdg/Dist  Freq  Var  ID
MESQUITE178/3.724803EPQF .--. --.- ..-.
TRAVIS261/14.226006EAVZ .- ...- --..
CADDO MILLS213/22.631606EMII -- .. ..

Airport Services

Fuel available: 100LL JET-A
SELF-SERVE FUEL AVBL 24 HRS WITH MAJOR CREDIT CARD.
Parking: hangars and tiedowns
Airframe service: MAJOR
Powerplant service: MAJOR
Bottled oxygen: NONE
Bulk oxygen: HIGH

Runway Information

Runway 18/36

Dimensions: 6000 x 100 ft. / 1829 x 30 m
Surface: concrete, in good condition
Weight bearing capacity: 
Single wheel: 70.0
Double wheel: 100.0
Double tandem: 100.0
Runway edge lights: medium intensity
RUNWAY 18  RUNWAY 36
Latitude: 32-45.312350N32-44.323150N
Longitude: 096-31.816150W096-31.834200W
Elevation: 446.0 ft.441.9 ft.
Traffic pattern: leftleft
Runway heading: 178 magnetic, 181 true358 magnetic, 001 true
Markings: precision, in good conditionprecision, in good condition
Visual slope indicator: 4-light PAPI on left (3.00 degrees glide path)4-light PAPI on left (3.00 degrees glide path)
Approach lights: RLLSRLLS
Runway end identifier lights: yesyes
Touchdown point: yes, no lightsyes, no lights
Instrument approach: ILS/DME
Obstructions: 34 ft. tree, 795 ft. from runway, 480 ft. left of centerline, 17:1 slope to clear
15 FT BRUSH 199 FT DSTC, 350 FT L.
8 ft. fence, 230 ft. from runway, 510 ft. right of centerline, 3:1 slope to clear

Airport Ownership and Management from official FAA records

Ownership: Publicly-owned
Owner: CITY OF MESQUITE
PO BOX 850137
MESQUITE, TX 75185-0137
Phone 972-288-7711
Manager: ERIC PRATT
1340 ARPT BLVD.
MESQUITE, TX 75181
Phone 972-216-4130

Airport Operational Statistics

Aircraft based on the field: 180
Single engine airplanes: 157
Multi engine airplanes: 17
Jet airplanes: 5
Helicopters: 1
    
Aircraft operations: avg 143/day *
57% local general aviation
40% transient general aviation
3% air taxi
<1% military
<1% commercial
* for 12-month period ending 31 December 2018

Additional Remarks

BIRDS, COYOTES, & WILD HOGS ON & INVOF ARPT.
FOR CD WHEN ATCT IS CLSD CTC REGIONAL APCH AT 972-615-2799.

Instrument Procedures

NOTE: All procedures below are presented as PDF files. If you need a reader for these files, you should download the free Adobe Reader.

NOT FOR NAVIGATION. Please procure official charts for flight.
FAA instrument procedures published for use from 10 October 2019 at 0901Z to 7 November 2019 at 0900Z.

 
STARs - Standard Terminal Arrivals
EESAT THREE (RNAV)   download (191KB)
FINGR FIVE   2 pages: [1] [2] (473KB)
GREGS NINE   2 pages: [1] [2] (545KB)
JFRYE THREE (RNAV)   download (243KB)
KNEAD EIGHT   2 pages: [1] [2] (425KB)
LOADS THREE (RNAV)   download (190KB)
SLANT THREE (RNAV)   download (229KB)
SWVAY FOUR (RNAV)   download (226KB)
YEAGR THREE   2 pages: [1] [2] (721KB)
 
IAPs - Instrument Approach Procedures
ILS OR LOC RWY 18   download (249KB)
RNAV (GPS) RWY 18   download (213KB)
RNAV (GPS) RWY 36   download (200KB)
LOC/DME BC RWY 36   download (226KB)
NOTE: Special Alternate Minimums apply   download (18KB)
 
Departure Procedures
DALLAS FOUR   2 pages: [1] [2] (500KB)
GARLAND SIX   2 pages: [1] [2] (322KB)
HUBBARD NINE   2 pages: [1] [2] (312KB)
JOE POOL ONE **CHANGED**   2 pages: [1] [2] (486KB)
KINGDOM FIVE   2 pages: [1] [2] (323KB)
KUSSO FIVE (RNAV)   2 pages: [1] [2] (262KB)
SWABR FIVE (RNAV)   2 pages: [1] [2] (261KB)
TEXOMA SIX **CHANGED**   2 pages: [1] [2] (475KB)
WORTH TWO   2 pages: [1] [2] (359KB)
NOTE: Special Take-Off Minimums/Departure Procedures apply   download

Other nearby airports with instrument procedures:

F46 - Ralph M Hall/Rockwall Municipal Airport (12 nm NE)
KTRL - Terrell Municipal Airport (13 nm E)
KLNC - Lancaster Regional Airport (14 nm SW)
KDAL - Dallas Love Field Airport (17 nm W)
KRBD - Dallas Executive Airport (18 nm W)
 
Loc | Ops | Rwys | IFR | FBO | Links
Com | Nav | Svcs | Stats | Notes
Area around KHQZ (Mesquite Metro Airport)
 
Road maps at: MapQuest Bing Google
 
Aerial photo
WARNING: Photo may not be current or correct
Aerial photo of KHQZ (Mesquite Metro Airport)
Photo taken 16-May-2006

Do you have a better or more recent aerial photo of Mesquite Metro Airport that you would like to share? If so, please send us your photo.

 
Sectional chart

 
Airport diagram
CAUTION: Diagram may not be current
Diagram of KHQZ (Mesquite Metro Airport)
 
Airport distance calculator
Flying to Mesquite Metro Airport? Find the distance to fly.

From to KHQZ

Sunrise and sunset
Times for 20-Oct-2019
 Local
(UTC-5)
 Zulu
(UTC)
Morning civil twilight07:1012:10
Sunrise07:3512:35
Sunset18:4723:47
Evening civil twilight19:1200:12

Current date and time
Zulu (UTC)  20-Oct-2019 20:56:59
Local (UTC-5)  20-Oct-2019 15:56:59
 
METAR
KHQZ 201950Z 15012G22KT 10SM CLR 30/17 A2970
KF46 
12nm NE 
202035Z AUTO 18009G20KT 10SM CLR 30/18 A2969 RMK AO2 T03020182
KTRL 
13nm E 
201953Z AUTO 17012KT 10SM CLR 30/17 A2971 RMK AO2 SLP054 T03000172
KLNC 
14nm SW 
202035Z AUTO 16015G20KT 10SM SCT043 SCT049 29/19 A2969 RMK AO2 T02920192
KDAL 
17nm W 
201953Z 17013G18KT 10SM FEW050 31/17 A2967 RMK AO2 SLP041 T03110172 $
KRBD 
17nm W 
201953Z 16018G23KT 10SM FEW049 31/18 A2967 RMK AO2 SLP041 T03110178
KADS 
20nm NW 
201950Z 18014G21KT 10SM SKC 30/16 A2968
TAF
KDAL 
17nm W 
201913Z 2019/2118 18013KT P6SM SCT045 FM210500 20014KT P6SM VCTS BKN100CB FM210700 26012KT P6SM +TSRA OVC050CB FM210900 32009KT P6SM VCSH SCT090 FM211100 33007KT P6SM FEW250
NOTAMs
Click for the latest NOTAMs
NOTAMs are issued by the DoD/FAA and will open in a separate window not controlled by AirNav.

 

 
 

FBO, Fuel Providers, and Aircraft Ground Support

  
 Business Name 
 
 Contact 
 
 Services / Description 
 
Fuel Prices
 
Comments
  
 Mesquite Metro Airport
972-216-4132
972-216-4130
[web site]
[email]
No delays. Competitive prices. Sincere Service. Touch down at Mesquite Metro Airport and find out why we are the best approach into Dallas.
More info and photos of Mesquite Metro Airport
 
NATA Safety 1st   U.S. Government AIR Card   Avfuel Contract Fuel   UVair   World Fuel Contract Fuel   AVTRIP   Crew cars   Enterprise Rent-A-Car   Hertz   Wireless Internet Access (WiFi)   Wheelchair Accessible   National Business Aviation Association  
 
Avfuel
100LL Jet A
FS $4.60 $4.50 
SS $3.95 $4.00 
GUARANTEED
 
   5 read write
FS=Full service
SS=Self service
Update Fuel Prices
 

Aviation Businesses, Services, and Facilities

  
 Business Name 
 
 Contact 
 
 Services / Description 
 
Distance
 
Comments
  
Mesquite Aircraft Sales And Service 972-216-3597
[web site]
Aircraft ground handling, Oxygen service, Aircraft parking (ramp or tiedown), Hangars, Hangar leasing / sales, GPU / Power cart, ...

More info about Mesquite Aircraft Sales And Service
on airport  
   9 read write
Mesquite Aviation 972-222-3546
[web site]
[email]
Flight training, Aircraft rental, Aerial tours / aerial sightseeing, Aerial photography, Aircraft maintenance, Aircraft cleaning / washing / detailing, Aircraft parts, Aviation accessories, ...
 
CATS Testing Center  
 
More info about Mesquite Aviation
on airport  
   1 read write
 

Would you like to see your business listed on this page?

 If your business provides an interesting product or service to pilots, flight crews, aircraft, or users of the Mesquite Metro Airport, you should consider listing it here.  To start the listing process, click on the button below
 
Add a business
 

Other Pages about Mesquite Metro Airport

www.cityofmesquite.com/airport
 
Update a link
 
Copyright © AirNav, LLC. All rights reserved. Privacy Policy  Contact